Time;durP1;ratioP1;P1;durP2;ratioP2;P2;SDS_P1;SDS_P2;PMS_P1;PMS_P2;Temp;Humidity;BMP_temperature;BMP_pressure;BME280_temperature;BME280_humidity;BME280_pressure;Samples;Min_cycle;Max_cycle;Signal;HPM_P1;HPM_P2
2021/03/24 00:05:18;;;;;;;24.40;8.50;;;5.90;99.90;;;;;;10393724;28;20489;-48
2021/03/24 00:10:39;;;;;;;18.10;7.57;;;5.90;99.90;;;;;;10371362;28;20145;-49
2021/03/24 00:16:01;;;;;;;22.25;6.70;;;5.90;99.90;;;;;;10366799;28;20517;-48
2021/03/24 00:21:22;;;;;;;22.05;6.82;;;5.80;99.90;;;;;;10366896;28;20037;-48
2021/03/24 00:26:43;;;;;;;21.30;6.78;;;5.70;99.90;;;;;;10345334;28;20120;-48
2021/03/24 00:32:05;;;;;;;28.95;9.48;;;5.70;99.90;;;;;;10367456;28;20038;-48
2021/03/24 00:37:26;;;;;;;31.45;9.32;;;5.70;99.90;;;;;;10370503;28;20585;-49
2021/03/24 00:42:47;;;;;;;30.20;9.73;;;5.80;99.90;;;;;;10364630;28;20049;-48
2021/03/24 00:48:24;;;;;;;24.85;9.25;;;5.80;99.90;;;;;;10366025;28;20037;-48
2021/03/24 00:53:44;;;;;;;29.05;10.32;;;5.70;99.90;;;;;;10364298;28;20077;-48
2021/03/24 00:59:05;;;;;;;30.85;8.63;;;5.80;99.90;;;;;;10350773;28;20072;-48
2021/03/24 01:04:27;;;;;;;26.85;8.80;;;5.70;99.90;;;;;;10367580;28;20702;-48
2021/03/24 01:09:47;;;;;;;28.77;9.68;;;5.70;99.90;;;;;;10370466;28;20045;-48
2021/03/24 01:15:09;;;;;;;24.08;9.90;;;5.60;99.90;;;;;;10377804;28;20136;-49
2021/03/24 01:20:33;;;;;;;32.35;9.73;;;5.70;99.90;;;;;;10354784;28;20034;-49
2021/03/24 01:25:54;;;;;;;26.38;9.02;;;5.60;99.90;;;;;;10370410;28;20052;-48
2021/03/24 01:31:14;;;;;;;23.67;9.75;;;5.50;99.90;;;;;;10375740;28;20076;-48
2021/03/24 01:36:35;;;;;;;26.40;10.88;;;5.50;99.90;;;;;;10378809;28;20048;-48
2021/03/24 01:41:56;;;;;;;38.45;10.35;;;5.60;99.90;;;;;;10376217;28;20142;-49
2021/03/24 01:47:17;;;;;;;29.00;9.73;;;5.50;99.90;;;;;;10346750;28;20041;-49
2021/03/24 01:52:38;;;;;;;30.80;10.57;;;5.40;99.90;;;;;;10335521;28;20485;-48
2021/03/24 01:58:00;;;;;;;23.45;8.20;;;5.30;99.90;;;;;;10336680;28;20115;-48
2021/03/24 02:03:24;;;;;;;38.15;10.57;;;5.30;99.90;;;;;;10380157;28;20118;-48
2021/03/24 02:08:53;;;;;;;32.95;11.18;;;5.30;99.90;;;;;;10384815;28;20132;-48
2021/03/24 02:14:21;;;;;;;30.87;10.33;;;5.20;99.90;;;;;;10356308;28;20060;-48
2021/03/24 02:20:04;;;;;;;22.23;9.85;;;5.20;99.90;;;;;;10373724;28;20042;-48
2021/03/24 02:25:32;;;;;;;23.73;10.07;;;5.20;99.90;;;;;;10379576;28;21728;-48
2021/03/24 02:30:57;;;;;;;31.98;8.23;;;5.20;99.90;;;;;;10378568;28;20033;-49
2021/03/24 02:36:20;;;;;;;25.88;9.57;;;5.20;99.90;;;;;;10381948;28;20128;-49
2021/03/24 02:41:42;;;;;;;28.85;10.70;;;5.10;99.90;;;;;;10380019;28;20088;-48
2021/03/24 02:47:05;;;;;;;34.40;10.80;;;5.10;99.90;;;;;;10357537;28;20072;-48
2021/03/24 02:52:26;;;;;;;37.53;10.13;;;5.00;99.90;;;;;;10378652;28;20139;-48
2021/03/24 02:57:48;;;;;;;36.00;9.65;;;4.90;99.90;;;;;;10370542;28;20041;-48
2021/03/24 03:03:14;;;;;;;41.28;12.40;;;4.80;99.90;;;;;;10355101;28;20369;-48
2021/03/24 03:08:40;;;;;;;37.15;11.60;;;4.70;99.90;;;;;;10384859;28;20037;-48
2021/03/24 03:14:14;;;;;;;41.55;10.77;;;4.70;99.90;;;;;;10379978;28;20068;-48
2021/03/24 03:19:41;;;;;;;35.28;11.75;;;4.60;99.90;;;;;;10364668;28;20032;-48
2021/03/24 03:25:28;;;;;;;38.63;11.30;;;4.60;99.90;;;;;;10375453;28;20060;-48
2021/03/24 03:30:51;;;;;;;47.28;14.68;;;4.60;99.90;;;;;;10364628;28;20052;-48
2021/03/24 03:36:13;;;;;;;39.25;11.80;;;4.60;99.90;;;;;;10367606;28;20124;-48
2021/03/24 03:41:35;;;;;;;34.60;10.38;;;4.60;99.90;;;;;;10375102;28;20042;-49
2021/03/24 03:47:06;;;;;;;29.38;11.52;;;4.60;99.90;;;;;;10375126;28;20037;-48
2021/03/24 03:52:27;;;;;;;35.95;11.80;;;4.70;99.90;;;;;;10372630;28;20060;-48
2021/03/24 03:57:54;;;;;;;29.77;10.07;;;4.60;99.90;;;;;;10368674;28;20553;-48
2021/03/24 04:03:19;;;;;;;35.70;11.77;;;4.60;99.90;;;;;;10374826;28;20053;-48
2021/03/24 04:08:40;;;;;;;31.58;11.23;;;4.60;99.90;;;;;;10372094;28;20421;-48
2021/03/24 04:14:04;;;;;;;25.75;8.90;;;4.60;99.90;;;;;;10374662;28;20033;-48
2021/03/24 04:19:35;;;;;;;32.22;9.95;;;4.70;99.90;;;;;;10371485;28;20038;-49
2021/03/24 04:24:57;;;;;;;29.63;11.15;;;4.60;99.90;;;;;;10370817;28;20096;-48
2021/03/24 04:30:30;;;;;;;40.28;11.63;;;4.60;99.90;;;;;;10364286;28;20075;-48
2021/03/24 04:35:52;;;;;;;30.65;13.15;;;4.60;99.90;;;;;;10366993;28;20046;-49
2021/03/24 04:41:20;;;;;;;32.25;11.70;;;4.60;99.90;;;;;;10365053;28;20041;-48
2021/03/24 04:46:43;;;;;;;22.58;9.40;;;4.60;99.90;;;;;;10370833;28;20048;-48
2021/03/24 04:52:06;;;;;;;26.25;11.10;;;4.60;99.90;;;;;;10348824;28;20404;-48
2021/03/24 04:57:27;;;;;;;32.20;11.93;;;4.70;99.90;;;;;;10355788;28;20462;-48
2021/03/24 05:02:54;;;;;;;29.58;10.20;;;4.80;99.90;;;;;;10367538;28;20048;-49
2021/03/24 05:08:23;;;;;;;29.58;10.07;;;4.80;99.90;;;;;;10368810;28;20041;-49
2021/03/24 05:14:06;;;;;;;32.10;11.88;;;4.70;99.90;;;;;;10352939;28;20042;-48
2021/03/24 05:19:28;;;;;;;36.78;10.80;;;4.80;99.90;;;;;;10366360;28;20553;-48
2021/03/24 05:24:54;;;;;;;26.48;8.90;;;4.80;99.90;;;;;;10371586;28;20045;-48
2021/03/24 05:30:25;;;;;;;31.92;11.63;;;4.70;99.90;;;;;;10359047;28;20469;-48
2021/03/24 05:36:16;;;;;;;28.42;10.88;;;4.70;99.90;;;;;;10352550;28;20576;-48
2021/03/24 05:41:46;;;;;;;23.95;9.73;;;4.60;99.90;;;;;;10367287;28;20049;-48
2021/03/24 05:47:30;;;;;;;32.03;10.45;;;4.60;99.90;;;;;;10366873;28;20654;-48
2021/03/24 05:53:22;;;;;;;32.00;12.07;;;4.60;99.90;;;;;;10324284;28;20042;-49
2021/03/24 05:59:00;;;;;;;27.35;10.80;;;4.70;99.90;;;;;;10341935;28;20041;-48
2021/03/24 06:04:31;;;;;;;31.88;10.95;;;4.60;99.90;;;;;;10370105;28;20053;-48
2021/03/24 06:10:14;;;;;;;26.45;9.82;;;4.60;99.90;;;;;;10362097;28;21588;-48
2021/03/24 06:15:50;;;;;;;27.23;9.52;;;4.60;99.90;;;;;;10342905;28;20045;-48
2021/03/24 06:21:36;;;;;;;30.95;11.57;;;4.60;99.90;;;;;;10382000;28;20132;-50
2021/03/24 06:26:57;;;;;;;29.45;10.77;;;4.60;99.90;;;;;;10375088;28;20100;-48
2021/03/24 06:33:02;;;;;;;19.10;8.45;;;4.70;99.90;;;;;;10375377;28;20034;-49
2021/03/24 06:38:44;;;;;;;29.80;10.77;;;4.80;99.90;;;;;;10366859;28;20471;-48
2021/03/24 06:44:23;;;;;;;26.85;9.32;;;5.00;99.90;;;;;;10382455;28;20508;-49
2021/03/24 06:50:03;;;;;;;;;;;5.10;99.90;;;;;;10377542;28;20517;-48
2021/03/24 06:55:27;;;;;;;36.13;9.83;;;5.20;99.90;;;;;;10386176;28;19929;-48
2021/03/24 07:01:17;;;;;;;42.03;14.27;;;5.20;99.90;;;;;;10394702;28;20050;-51
2021/03/24 07:06:57;;;;;;;;;;;5.30;99.90;;;;;;10357605;28;20030;-48
2021/03/24 07:12:50;;;;;;;32.13;11.60;;;5.50;99.90;;;;;;10384499;28;19979;-49
2021/03/24 07:18:30;;;;;;;40.90;12.93;;;5.70;99.90;;;;;;10379918;28;20059;-48
2021/03/24 07:24:03;;;;;;;26.13;11.13;;;5.90;99.90;;;;;;10375119;28;20524;-49
2021/03/24 07:29:51;;;;;;;39.22;9.55;;;6.00;99.90;;;;;;10383037;28;20050;-48
2021/03/24 07:35:26;;;;;;;34.70;10.43;;;6.20;99.90;;;;;;10379137;28;20038;-48
2021/03/24 07:41:21;;;;;;;33.85;8.07;;;6.50;99.90;;;;;;10376908;28;20124;-48
2021/03/24 07:47:11;;;;;;;31.30;7.90;;;6.80;99.90;;;;;;10379177;28;20038;-48
2021/03/24 07:52:56;;;;;;;25.25;8.30;;;6.90;99.90;;;;;;10383671;28;20111;-48
2021/03/24 07:58:38;;;;;;;30.75;8.93;;;7.10;99.90;;;;;;10375286;28;20037;-48
2021/03/24 08:04:20;;;;;;;25.73;8.05;;;7.20;99.90;;;;;;10375568;28;20037;-49
2021/03/24 08:09:47;;;;;;;23.58;9.32;;;7.50;99.90;;;;;;10375936;28;20481;-48
2021/03/24 08:15:20;;;;;;;22.45;9.10;;;7.70;99.90;;;;;;10372881;28;20398;-49
2021/03/24 08:21:09;;;;;;;20.27;7.85;;;7.90;99.90;;;;;;10382170;28;20436;-48
2021/03/24 08:26:48;;;;;;;26.30;8.43;;;8.10;99.90;;;;;;10365122;28;20069;-48
2021/03/24 08:32:36;;;;;;;26.07;8.77;;;8.50;99.90;;;;;;10377117;28;20103;-48
2021/03/24 08:38:01;;;;;;;26.73;9.05;;;8.80;99.90;;;;;;10388233;28;20091;-48
2021/03/24 08:43:28;;;;;;;22.50;8.25;;;8.90;99.90;;;;;;10366327;28;20179;-48
2021/03/24 08:48:57;;;;;;;20.65;8.07;;;9.20;99.90;;;;;;10376035;28;20037;-48
2021/03/24 08:54:51;;;;;;;23.70;10.10;;;9.50;99.90;;;;;;10395088;28;20124;-48
2021/03/24 09:00:34;;;;;;;24.35;8.90;;;9.70;99.90;;;;;;10380664;28;20522;-48
2021/03/24 09:06:23;;;;;;;23.60;7.85;;;10.00;99.90;;;;;;10363661;28;20478;-48
2021/03/24 09:12:15;;;;;;;19.42;7.38;;;10.30;99.90;;;;;;10373006;28;20041;-48
2021/03/24 09:18:14;;;;;;;24.10;8.70;;;10.80;99.90;;;;;;10372375;28;20042;-48
2021/03/24 09:23:56;;;;;;;21.90;7.65;;;11.00;99.90;;;;;;10359754;28;20049;-48
2021/03/24 09:30:01;;;;;;;20.98;7.95;;;11.40;99.90;;;;;;10361369;28;20348;-48
2021/03/24 09:35:50;;;;;;;19.13;7.97;;;11.60;99.90;;;;;;10383647;28;20056;-48
2021/03/24 09:41:17;;;;;;;20.48;7.53;;;11.90;99.90;;;;;;10366594;28;20330;-48
2021/03/24 09:46:45;;;;;;;19.40;8.27;;;12.30;99.90;;;;;;10358882;28;20053;-48
2021/03/24 09:52:36;;;;;;;21.95;6.93;;;12.40;99.90;;;;;;10377469;28;20125;-48
2021/03/24 09:58:15;;;;;;;15.77;6.40;;;12.40;99.90;;;;;;10345451;28;20399;-48
2021/03/24 10:03:57;;;;;;;17.25;7.15;;;12.20;99.90;;;;;;10336517;28;20068;-48
2021/03/24 10:09:38;;;;;;;19.58;8.18;;;12.00;99.90;;;;;;10375381;28;20478;-48
2021/03/24 10:15:08;;;;;;;19.48;7.68;;;11.90;99.90;;;;;;10368109;28;20044;-51
2021/03/24 10:20:51;;;;;;;17.45;7.05;;;12.60;99.90;;;;;;10377036;28;20034;-48
2021/03/24 10:26:25;;;;;;;18.05;7.72;;;13.30;99.90;;;;;;10364748;28;20115;-50
2021/03/24 10:32:00;;;;;;;17.38;7.40;;;13.40;99.90;;;;;;10377450;28;20417;-50
2021/03/24 10:37:27;;;;;;;17.50;8.05;;;13.40;99.90;;;;;;10379381;28;20489;-50
2021/03/24 10:43:13;;;;;;;22.15;8.43;;;13.90;99.90;;;;;;10377743;28;20033;-50
2021/03/24 10:48:43;;;;;;;20.55;8.13;;;14.30;99.90;;;;;;10368927;28;20096;-48
2021/03/24 10:54:14;;;;;;;17.73;8.43;;;14.90;99.90;;;;;;10347196;28;20038;-48
2021/03/24 10:59:42;;;;;;;22.77;6.82;;;14.30;99.90;;;;;;10379087;28;20042;-48
2021/03/24 11:05:13;;;;;;;24.67;8.93;;;14.20;99.90;;;;;;10376398;28;20054;-48
2021/03/24 11:10:57;;;;;;;17.02;6.80;;;14.40;99.90;;;;;;10399995;28;20478;-50
2021/03/24 11:16:40;;;;;;;20.23;8.52;;;14.90;99.90;;;;;;10375484;28;20042;-48
2021/03/24 11:22:17;;;;;;;14.20;6.43;;;15.90;99.90;;;;;;10380029;28;20062;-51
2021/03/24 11:27:58;;;;;;;18.35;6.75;;;16.60;99.90;;;;;;10351546;28;20057;-51
2021/03/24 11:33:40;;;;;;;21.38;7.93;;;17.70;99.90;;;;;;10334522;28;20042;-51
2021/03/24 11:39:06;;;;;;;16.30;6.93;;;16.90;99.90;;;;;;10340136;28;20037;-48
2021/03/24 11:44:30;;;;;;;18.25;7.35;;;16.60;99.90;;;;;;10339387;28;20124;-48
2021/03/24 11:50:08;;;;;;;13.95;6.43;;;17.30;99.90;;;;;;10339288;28;20038;-48
2021/03/24 11:55:58;;;;;;;17.00;7.40;;;17.80;99.90;;;;;;10379893;28;20053;-48
2021/03/24 12:01:39;;;;;;;24.80;7.65;;;17.00;99.90;;;;;;10335464;28;20042;-48
2021/03/24 12:07:09;;;;;;;18.52;6.18;;;17.90;99.90;;;;;;10335740;28;20074;-48
2021/03/24 12:12:30;;;;;;;19.13;6.35;;;18.80;97.00;;;;;;10374747;28;20106;-48
2021/03/24 12:17:51;;;;;;;19.08;6.85;;;19.30;94.80;;;;;;10385889;28;20067;-48
2021/03/24 12:23:13;;;;;;;12.32;6.18;;;18.80;96.50;;;;;;10383140;28;20429;-49
2021/03/24 12:28:40;;;;;;;14.40;6.47;;;18.60;94.10;;;;;;10376149;28;20048;-48
2021/03/24 12:34:03;;;;;;;18.98;6.68;;;18.20;95.20;;;;;;10340232;28;20034;-48
2021/03/24 12:39:34;;;;;;;18.13;7.15;;;17.10;99.70;;;;;;10332454;28;20060;-49
2021/03/24 12:44:55;;;;;;;13.65;5.80;;;17.60;99.30;;;;;;10333677;28;20608;-49
2021/03/24 12:50:23;;;;;;;18.52;5.70;;;17.20;99.90;;;;;;10328106;28;20110;-49
2021/03/24 12:55:45;;;;;;;16.90;6.32;;;18.30;97.50;;;;;;10331186;28;20033;-49
2021/03/24 13:01:23;;;;;;;15.63;5.88;;;17.70;98.50;;;;;;10338919;28;20046;-50
2021/03/24 13:07:26;;;;;;;22.85;6.90;;;18.10;96.10;;;;;;10355722;28;20481;-49
2021/03/24 13:12:56;;;;;;;14.70;6.03;;;18.20;97.10;;;;;;10344365;28;20030;-49
2021/03/24 13:18:31;;;;;;;13.77;6.32;;;18.90;94.80;;;;;;10356334;28;20414;-49
2021/03/24 13:24:04;;;;;;;15.07;6.38;;;17.80;96.40;;;;;;10368810;28;20589;-49
2021/03/24 13:29:52;;;;;;;11.80;5.13;;;17.40;98.60;;;;;;10364419;28;20041;-49
2021/03/24 13:35:40;;;;;;;10.52;5.10;;;18.50;96.30;;;;;;10357476;28;20040;-49
2021/03/24 13:41:02;;;;;;;12.63;5.57;;;17.70;95.70;;;;;;10367730;28;20069;-49
2021/03/24 13:46:36;;;;;;;11.77;5.18;;;17.70;97.90;;;;;;10344930;28;20059;-49
2021/03/24 13:52:05;;;;;;;11.98;4.85;;;18.70;93.40;;;;;;10367853;28;20073;-49
2021/03/24 13:57:40;;;;;;;15.27;5.45;;;18.20;94.20;;;;;;10369450;28;20392;-49
2021/03/24 14:03:07;;;;;;;14.07;6.05;;;17.30;95.90;;;;;;10365031;28;20045;-48
2021/03/24 14:08:42;;;;;;;11.02;5.18;;;17.30;98.80;;;;;;10366218;28;20053;-48
2021/03/24 14:14:29;;;;;;;11.70;4.90;;;17.30;97.80;;;;;;10365128;28;20297;-49
2021/03/24 14:20:06;;;;;;;11.45;5.57;;;17.60;95.90;;;;;;10369084;28;20488;-49
2021/03/24 14:25:41;;;;;;;19.15;5.57;;;16.80;99.10;;;;;;10353349;28;20049;-48
2021/03/24 14:31:19;;;;;;;11.70;4.32;;;15.80;99.90;;;;;;10372263;28;20042;-48
2021/03/24 14:36:42;;;;;;;15.35;7.03;;;15.10;99.90;;;;;;10374767;28;20132;-48
2021/03/24 14:42:21;;;;;;;15.77;6.47;;;15.50;99.90;;;;;;10366728;28;20150;-48
2021/03/24 14:48:14;;;;;;;20.48;6.00;;;15.30;99.90;;;;;;10388557;28;20267;-48
2021/03/24 14:53:41;;;;;;;11.43;5.63;;;15.70;99.90;;;;;;10377068;28;20064;-48
2021/03/24 14:59:21;;;;;;;17.50;5.97;;;16.00;99.90;;;;;;10367944;28;20409;-48
2021/03/24 15:04:44;;;;;;;18.45;7.30;;;16.10;99.90;;;;;;10371483;28;20165;-48
2021/03/24 15:10:29;;;;;;;13.70;5.90;;;15.50;99.90;;;;;;10342198;28;20081;-48
2021/03/24 15:16:02;;;;;;;17.08;6.43;;;15.30;99.90;;;;;;10334057;28;20046;-49
2021/03/24 15:21:42;;;;;;;12.77;4.80;;;15.20;99.90;;;;;;10375269;28;20132;-48
2021/03/24 15:27:06;;;;;;;15.60;6.00;;;15.10;99.90;;;;;;10372268;28;20053;-48
2021/03/24 15:32:27;;;;;;;13.60;5.03;;;14.90;99.90;;;;;;10374693;28;20091;-49
2021/03/24 15:38:20;;;;;;;17.08;6.25;;;14.90;99.90;;;;;;10372160;28;20045;-48
2021/03/24 15:44:07;;;;;;;13.75;5.90;;;14.90;99.90;;;;;;10374976;28;20555;-49
2021/03/24 15:49:39;;;;;;;17.45;5.70;;;14.90;99.90;;;;;;10376061;28;20034;-48
2021/03/24 15:55:03;;;;;;;17.85;6.32;;;14.80;99.90;;;;;;10370025;28;20076;-49
2021/03/24 16:00:52;;;;;;;15.98;7.60;;;14.50;99.90;;;;;;10349070;28;20397;-48
2021/03/24 16:06:31;;;;;;;19.38;6.47;;;14.20;99.90;;;;;;10371255;28;20372;-49
2021/03/24 16:11:58;;;;;;;12.52;6.10;;;13.90;99.90;;;;;;10375868;28;20040;-49
2021/03/24 16:17:42;;;;;;;16.70;6.95;;;13.70;99.90;;;;;;10381313;28;20449;-51
2021/03/24 16:23:38;;;;;;;17.15;5.82;;;13.60;99.90;;;;;;10356352;28;20042;-49
2021/03/24 16:29:03;;;;;;;12.52;5.65;;;13.50;99.90;;;;;;10339745;28;20338;-49
2021/03/24 16:34:51;;;;;;;10.20;5.15;;;13.40;99.90;;;;;;10373067;28;20125;-49
2021/03/24 16:40:37;;;;;;;11.50;4.70;;;13.40;99.90;;;;;;10338821;28;20194;-49
2021/03/24 16:46:16;;;;;;;11.90;4.70;;;13.20;99.90;;;;;;10368075;28;20069;-49
2021/03/24 16:51:55;;;;;;;14.15;6.53;;;12.80;99.90;;;;;;10376172;28;20033;-49
2021/03/24 16:57:19;;;;;;;12.77;4.45;;;12.70;99.90;;;;;;10344854;28;20037;-49
2021/03/24 17:03:09;;;;;;;11.65;4.45;;;12.50;99.90;;;;;;10333434;28;20042;-49
2021/03/24 17:08:47;;;;;;;9.45;4.35;;;12.40;99.90;;;;;;10373280;28;20054;-51
2021/03/24 17:14:32;;;;;;;11.93;4.60;;;12.20;99.90;;;;;;10368839;28;20046;-49
2021/03/24 17:20:09;;;;;;;6.80;3.85;;;12.00;99.90;;;;;;10371957;28;20040;-49
2021/03/24 17:25:42;;;;;;;16.95;4.28;;;11.80;99.90;;;;;;10355798;28;20447;-49
2021/03/24 17:31:21;;;;;;;11.35;3.75;;;11.70;99.90;;;;;;10378836;28;20042;-49
2021/03/24 17:37:21;;;;;;;12.30;4.15;;;11.70;99.90;;;;;;10372964;28;20100;-49
2021/03/24 17:43:03;;;;;;;8.43;3.95;;;11.50;99.90;;;;;;10368093;28;20482;-49
2021/03/24 17:48:33;;;;;;;8.82;3.42;;;11.30;99.90;;;;;;10373631;28;20428;-49
2021/03/24 17:54:00;;;;;;;10.70;4.22;;;11.10;99.90;;;;;;10346474;28;20577;-49
2021/03/24 17:59:41;;;;;;;8.20;3.78;;;10.90;99.90;;;;;;10373931;28;20042;-49
2021/03/24 18:05:09;;;;;;;9.25;4.38;;;10.80;99.90;;;;;;10370143;28;20061;-49
2021/03/24 18:10:36;;;;;;;9.40;2.77;;;10.60;99.90;;;;;;10359160;28;20042;-49
2021/03/24 18:16:00;;;;;;;9.40;3.05;;;10.40;99.90;;;;;;10367683;28;20108;-49
2021/03/24 18:21:21;;;;;;;10.38;3.72;;;10.20;99.90;;;;;;10346442;28;20043;-49
2021/03/24 18:26:42;;;;;;;7.25;2.95;;;10.10;99.90;;;;;;10357627;28;20551;-49
2021/03/24 18:32:09;;;;;;;10.57;3.85;;;10.00;99.90;;;;;;10334720;28;20243;-49
2021/03/24 18:37:30;;;;;;;11.18;3.83;;;9.90;99.90;;;;;;10353400;28;20076;-49
2021/03/24 18:43:14;;;;;;;6.68;2.53;;;9.90;99.90;;;;;;10350020;28;20056;-49
2021/03/24 18:48:50;;;;;;;8.73;2.75;;;9.90;99.90;;;;;;10342547;28;20129;-49
2021/03/24 18:54:27;;;;;;;11.75;3.65;;;9.80;99.90;;;;;;10343218;28;20029;-49
2021/03/24 18:59:48;;;;;;;6.55;3.58;;;9.70;99.90;;;;;;10328891;28;20088;-49
2021/03/24 19:05:36;;;;;;;11.15;3.95;;;9.70;99.90;;;;;;10346605;28;20899;-49
2021/03/24 19:11:04;;;;;;;10.52;3.67;;;9.60;99.90;;;;;;10327466;28;20053;-49
2021/03/24 19:16:36;;;;;;;8.38;3.28;;;9.60;99.90;;;;;;10351964;28;20121;-49
2021/03/24 19:21:59;;;;;;;15.32;4.75;;;9.60;99.90;;;;;;10344814;28;20142;-49
2021/03/24 19:27:24;;;;;;;8.13;3.90;;;9.60;99.90;;;;;;10347749;28;20044;-49
2021/03/24 19:32:45;;;;;;;10.60;4.15;;;9.40;99.90;;;;;;10349221;28;20609;-49
2021/03/24 19:38:21;;;;;;;10.07;4.40;;;9.40;99.90;;;;;;10340614;28;20037;-49
2021/03/24 19:43:42;;;;;;;8.48;4.13;;;9.20;99.90;;;;;;10346813;28;20052;-49
2021/03/24 19:49:06;;;;;;;15.75;5.22;;;9.10;99.90;;;;;;10333834;28;20049;-49
2021/03/24 19:54:31;;;;;;;14.68;5.95;;;9.00;99.90;;;;;;10328079;28;20041;-49
2021/03/24 20:00:09;;;;;;;14.88;4.75;;;9.00;99.90;;;;;;10348481;28;20038;-49
2021/03/24 20:05:40;;;;;;;12.10;5.03;;;8.90;99.90;;;;;;10343262;28;20107;-49
2021/03/24 20:11:05;;;;;;;14.15;4.13;;;8.70;99.90;;;;;;10352141;28;20041;-49
2021/03/24 20:16:29;;;;;;;13.35;5.20;;;8.70;99.90;;;;;;10331079;28;20104;-49
2021/03/24 20:21:52;;;;;;;10.63;4.18;;;8.60;99.90;;;;;;10355424;28;20083;-49
2021/03/24 20:27:17;;;;;;;7.78;2.90;;;8.50;99.90;;;;;;10355253;28;20394;-49
2021/03/24 20:32:42;;;;;;;10.40;3.65;;;8.50;99.90;;;;;;10348793;28;20049;-49
2021/03/24 20:38:29;;;;;;;9.77;4.00;;;8.50;99.90;;;;;;10354334;28;20068;-49
2021/03/24 20:43:50;;;;;;;12.32;5.40;;;8.50;99.90;;;;;;10358489;28;20102;-49
2021/03/24 20:49:22;;;;;;;9.63;4.05;;;8.40;99.90;;;;;;10349103;28;20056;-49
2021/03/24 20:54:43;;;;;;;10.65;3.38;;;8.50;99.90;;;;;;10358663;28;20481;-49
2021/03/24 21:00:06;;;;;;;8.23;3.33;;;8.40;99.90;;;;;;10358198;28;20674;-49
2021/03/24 21:05:27;;;;;;;7.35;3.00;;;8.40;99.90;;;;;;10348772;28;20063;-49
2021/03/24 21:10:49;;;;;;;11.18;3.83;;;8.40;99.90;;;;;;10352967;28;20147;-49
2021/03/24 21:16:19;;;;;;;14.73;4.68;;;8.30;99.90;;;;;;10352210;28;20720;-48
2021/03/24 21:21:40;;;;;;;;;;;8.10;99.90;;;;;;10361335;28;20037;-49
2021/03/24 21:27:01;;;;;;;14.95;4.70;;;8.00;99.90;;;;;;10348294;28;19925;-49
2021/03/24 21:32:22;;;;;;;14.93;4.53;;;8.00;99.90;;;;;;10338880;28;20045;-49
2021/03/24 21:37:44;;;;;;;12.38;5.03;;;7.90;99.90;;;;;;10345803;28;20048;-48
2021/03/24 21:43:05;;;;;;;12.45;4.75;;;7.90;99.90;;;;;;10351776;28;20053;-49
2021/03/24 21:48:32;;;;;;;11.75;4.20;;;7.80;99.90;;;;;;10338078;28;20108;-48
2021/03/24 21:53:54;;;;;;;14.95;5.28;;;7.80;99.90;;;;;;10357472;28;20040;-49
2021/03/24 21:59:23;;;;;;;12.55;5.85;;;7.80;99.90;;;;;;10339981;28;20049;-49
2021/03/24 22:04:44;;;;;;;15.25;4.85;;;7.70;99.90;;;;;;10346360;28;20491;-49
2021/03/24 22:10:14;;;;;;;8.93;5.38;;;7.60;99.90;;;;;;10374857;28;20049;-48
2021/03/24 22:15:38;;;;;;;10.20;4.15;;;7.70;99.90;;;;;;10359171;28;20038;-49
2021/03/24 22:21:04;;;;;;;9.48;3.95;;;7.70;99.90;;;;;;10376521;28;20037;-49
2021/03/24 22:26:43;;;;;;;10.90;3.97;;;7.70;99.90;;;;;;10344564;28;20045;-49
2021/03/24 22:32:07;;;;;;;11.98;4.47;;;7.50;99.90;;;;;;10368085;28;20597;-49
2021/03/24 22:37:30;;;;;;;14.95;4.35;;;7.40;99.90;;;;;;10354806;28;20037;-48
2021/03/24 22:42:53;;;;;;;11.23;4.07;;;7.30;99.90;;;;;;10366349;28;20183;-49
2021/03/24 22:48:43;;;;;;;9.40;3.50;;;7.30;99.90;;;;;;10376035;28;20049;-49
2021/03/24 22:54:40;;;;;;;;;;;7.20;99.90;;;;;;10368623;28;20041;-49
2021/03/24 23:00:01;;;;;;;14.02;5.50;;;7.10;99.90;;;;;;10316330;28;19931;-48
2021/03/24 23:05:23;;;;;;;13.20;5.93;;;7.00;99.90;;;;;;10370369;28;20092;-49
2021/03/24 23:10:45;;;;;;;12.15;4.53;;;7.00;99.90;;;;;;10364302;28;20345;-48
2021/03/24 23:16:24;;;;;;;17.90;5.50;;;7.00;99.90;;;;;;10370185;28;20113;-48
2021/03/24 23:21:45;;;;;;;20.27;6.90;;;6.90;99.90;;;;;;10368414;28;20041;-48
2021/03/24 23:27:16;;;;;;;15.15;6.32;;;6.90;99.90;;;;;;10365062;28;20119;-49
2021/03/24 23:32:37;;;;;;;18.63;7.03;;;7.20;99.90;;;;;;10365637;28;20049;-49
2021/03/24 23:38:00;;;;;;;16.15;5.82;;;7.40;99.90;;;;;;10365957;28;20512;-49
2021/03/24 23:43:21;;;;;;;16.58;6.82;;;7.40;99.90;;;;;;10352761;28;20091;-49
2021/03/24 23:48:42;;;;;;;12.68;4.88;;;7.40;99.90;;;;;;10363440;28;20054;-48
2021/03/24 23:54:05;;;;;;;17.25;7.70;;;7.40;99.90;;;;;;10363978;28;20508;-48
2021/03/24 23:59:27;;;;;;;19.77;8.35;;;7.30;99.90;;;;;;10355750;28;20029;-48
